Time;durP1;ratioP1;P1;durP2;ratioP2;P2;SDS_P1;SDS_P2;PMS_P1;PMS_P2;Temp;Humidity;BMP_temperature;BMP_pressure;BME280_temperature;BME280_humidity;BME280_pressure;Samples;Min_cycle;Max_cycle;Signal;HPM_P1;HPM_P2
2022/12/31 00:01:50;;;;;;;;;75.75;62.25;;;;;21.47;49.25;95659.66;5006620;28;9780;-78
2022/12/31 00:04:17;;;;;;;;;69.00;59.00;;;;;21.47;49.16;95654.91;5005544;28;9792;-77
2022/12/31 00:06:45;;;;;;;;;68.00;58.00;;;;;21.47;49.05;95649.34;5006428;28;8852;-78
2022/12/31 00:09:12;;;;;;;;;76.75;63.75;;;;;21.46;49.17;95647.00;5006267;28;8890;-77
2022/12/31 00:11:39;;;;;;;;;70.50;59.25;;;;;21.46;49.13;95650.56;5004151;28;9566;-78
2022/12/31 00:14:06;;;;;;;;;74.50;62.50;;;;;21.47;49.02;95638.25;5006531;28;9091;-78
2022/12/31 00:16:36;;;;;;;;;68.25;58.00;;;;;21.47;48.96;95641.03;4998834;28;9585;-78
2022/12/31 00:19:06;;;;;;;;;80.25;67.00;;;;;21.48;48.95;95633.47;5005761;28;9562;-79
2022/12/31 00:21:34;;;;;;;;;79.25;66.25;;;;;21.47;48.96;95637.47;5005323;28;10260;-78
2022/12/31 00:24:03;;;;;;;;;77.25;65.25;;;;;21.47;48.90;95641.03;5004493;28;10006;-77
2022/12/31 00:26:32;;;;;;;;;73.00;61.00;;;;;21.45;48.83;95643.44;4996843;28;9866;-78
2022/12/31 00:29:00;;;;;;;;;68.50;58.75;;;;;21.46;48.90;95644.22;5005310;28;9342;-77
2022/12/31 00:31:30;;;;;;;;;69.00;57.75;;;;;21.45;48.71;95640.69;5002070;28;8948;-77
2022/12/31 00:33:58;;;;;;;;;77.75;65.25;;;;;21.46;48.58;95638.66;5006058;28;9057;-78
2022/12/31 00:36:30;;;;;;;;;68.00;58.00;;;;;21.46;48.59;95638.66;5004905;28;10614;-78
2022/12/31 00:38:58;;;;;;;;;68.00;58.50;;;;;21.46;48.39;95636.69;4999996;28;9690;-77
2022/12/31 00:41:26;;;;;;;;;75.25;63.00;;;;;21.47;48.61;95643.81;5005129;28;9753;-77
2022/12/31 00:43:54;;;;;;;;;66.00;56.25;;;;;21.47;48.48;95646.59;5007290;28;9601;-77
2022/12/31 00:46:21;;;;;;;;;77.25;65.25;;;;;21.47;48.36;95635.47;5004707;28;9369;-78
2022/12/31 00:48:48;;;;;;;;;73.33;61.33;;;;;21.47;48.20;95643.81;5003964;28;11131;-77
2022/12/31 00:51:19;;;;;;;;;78.00;64.75;;;;;21.48;48.38;95637.06;5004540;28;9510;-76
2022/12/31 00:53:46;;;;;;;;;79.25;66.00;;;;;21.47;48.21;95640.25;5003150;28;9621;-77
2022/12/31 00:56:16;;;;;;;;;77.75;64.75;;;;;21.47;48.07;95645.78;5007465;28;10212;-78
2022/12/31 00:58:44;;;;;;;;;78.75;66.00;;;;;21.47;47.96;95640.25;5004972;28;9987;-77
2022/12/31 01:01:19;;;;;;;;;75.50;62.25;;;;;21.48;48.08;95639.03;5004249;28;10077;-77
2022/12/31 01:03:47;;;;;;;;;60.25;52.00;;;;;21.48;47.76;95641.81;5004135;28;11071;-79
2022/12/31 01:06:14;;;;;;;;;77.75;65.25;;;;;21.48;47.80;95641.81;5002641;28;10614;-77
2022/12/31 01:08:41;;;;;;;;;69.75;59.25;;;;;21.46;47.89;95642.25;5002112;28;9909;-78
2022/12/31 01:11:21;;;;;;;;;78.25;65.25;;;;;21.45;47.66;95640.69;5006234;28;8874;-78
2022/12/31 01:14:11;;;;;;;;;67.75;58.00;;;;;21.43;47.63;95640.31;5005404;28;9759;-78
2022/12/31 01:16:50;;;;;;;;;72.00;60.67;;;;;21.45;47.75;95649.00;5002924;28;8894;-78
2022/12/31 01:19:24;;;;;;;;;69.25;59.00;;;;;21.46;47.74;95644.22;5004281;28;9400;-78
2022/12/31 01:21:52;;;;;;;;;71.00;59.25;;;;;21.45;47.64;95648.22;4987485;28;8891;-77
2022/12/31 01:24:19;;;;;;;;;70.00;60.00;;;;;21.44;47.86;95647.44;5005249;28;10889;-77
2022/12/31 01:26:49;;;;;;;;;70.00;60.00;;;;;21.45;47.62;95648.22;5004064;28;10770;-77
2022/12/31 01:29:16;;;;;;;;;69.00;59.00;;;;;21.42;47.62;95649.84;4988030;28;8945;-78
2022/12/31 01:31:43;;;;;;;;;79.75;66.00;;;;;21.41;47.72;95648.28;5004946;28;10719;-77
2022/12/31 01:34:10;;;;;;;;;77.25;65.00;;;;;21.41;47.58;95653.84;5004487;28;10788;-78
2022/12/31 01:36:37;;;;;;;;;68.75;58.50;;;;;21.44;47.72;95646.66;5004127;28;11052;-78
2022/12/31 01:39:07;;;;;;;;;70.25;58.00;;;;;21.41;47.51;95651.06;5004573;28;9695;-78
2022/12/31 01:41:36;;;;;;;;;71.50;61.25;;;;;21.40;47.48;95646.75;5005053;28;9742;-77
2022/12/31 01:44:12;;;;;;;;;68.75;59.25;;;;;21.41;47.67;95648.28;5005033;28;8852;-77
2022/12/31 01:46:41;;;;;;;;;71.75;60.50;;;;;21.42;47.54;95641.53;5003207;28;8918;-78
2022/12/31 01:49:38;;;;;;;;;75.00;62.75;;;;;21.44;47.35;95650.22;5004210;28;10988;-77
2022/12/31 01:52:09;;;;;;;;;68.25;58.25;;;;;21.40;47.44;95643.97;5002021;28;9590;-77
2022/12/31 01:54:42;;;;;;;;;73.75;61.00;;;;;21.41;47.43;95648.28;5002482;28;8890;-78
2022/12/31 01:57:11;;;;;;;;;69.25;59.25;;;;;21.40;47.53;95651.50;5003829;28;9609;-78
2022/12/31 01:59:38;;;;;;;;;68.00;58.00;;;;;21.41;47.31;95656.59;5000512;28;10811;-78
2022/12/31 02:02:05;;;;;;;;;71.00;59.25;;;;;21.40;47.12;95652.28;5005864;28;8840;-78
2022/12/31 02:04:32;;;;;;;;;66.25;57.00;;;;;21.39;47.20;95653.50;5003897;28;10355;-78
2022/12/31 02:07:02;;;;;;;;;75.25;63.00;;;;;21.41;47.17;95655.84;5004217;28;10643;-78
2022/12/31 02:09:31;;;;;;;;;77.00;63.25;;;;;21.41;46.93;95658.63;5004107;28;9710;-78
2022/12/31 02:11:58;;;;;;;;;79.50;67.00;;;;;21.40;47.14;95660.63;5001608;28;10497;-78
2022/12/31 02:14:32;;;;;;;;;68.75;58.75;;;;;21.42;46.99;95662.94;5005284;28;10434;-79
2022/12/31 02:17:08;;;;;;;;;77.00;64.00;;;;;21.41;47.14;95662.16;5002228;28;8824;-78
2022/12/31 02:19:53;;;;;;;;;77.75;65.00;;;;;21.40;46.99;95665.38;5001024;28;10630;-77
2022/12/31 02:22:42;;;;;;;;;71.67;60.67;;;;;21.39;47.20;95658.25;4983848;28;10120;-77
2022/12/31 02:25:30;;;;;;;;;73.25;61.25;;;;;21.41;47.04;95664.16;4998774;28;9805;-77
2022/12/31 02:28:12;;;;;;;;;78.25;65.00;;;;;21.39;47.18;95661.03;5003219;28;9493;-77
2022/12/31 02:30:41;;;;;;;;;79.25;66.25;;;;;21.37;47.19;95655.91;5001951;28;9846;-77
2022/12/31 02:33:31;;;;;;;;;70.75;60.75;;;;;21.38;47.19;95653.91;5002108;28;10570;-78
2022/12/31 02:36:04;;;;;;;;;79.25;66.00;;;;;21.38;47.18;95646.38;5001925;28;9153;-78
2022/12/31 02:38:37;;;;;;;;;78.00;65.25;;;;;21.37;47.21;95644.81;5001830;28;10311;-78
2022/12/31 02:41:04;;;;;;;;;81.00;67.00;;;;;21.38;47.18;95645.59;4999819;28;10021;-78
2022/12/31 02:43:31;;;;;;;;;76.75;64.75;;;;;21.39;47.38;95647.97;5002396;28;11161;-79
2022/12/31 02:46:18;;;;;;;;;69.50;59.25;;;;;21.37;47.20;95639.28;5003942;28;10026;-79
2022/12/31 02:49:00;;;;;;;;;80.00;66.50;;;;;21.37;47.22;95639.28;5003546;28;8851;-78
2022/12/31 02:51:44;;;;;;;;;80.25;67.25;;;;;21.37;47.14;95636.50;5003904;28;11058;-78
2022/12/31 02:54:32;;;;;;;;;72.25;61.00;;;;;21.36;47.09;95634.94;5004556;28;10410;-78
2022/12/31 02:57:10;;;;;;;;;78.25;66.00;;;;;21.37;47.02;95633.72;5000735;28;9577;-78
2022/12/31 03:02:42;;;;;;;;;69.00;59.00;;;;;21.36;46.94;95629.41;5000475;28;9458;-78
2022/12/31 03:05:11;;;;;;;;;68.75;58.00;;;;;21.37;47.20;95636.50;4998130;28;8844;-77
2022/12/31 03:07:40;;;;;;;;;78.25;65.25;;;;;21.37;46.89;95627.41;5005203;28;8975;-77
2022/12/31 03:10:08;;;;;;;;;70.00;60.00;;;;;21.36;46.92;95631.41;5004740;28;10105;-78
2022/12/31 03:12:47;;;;;;;;;68.75;59.00;;;;;21.36;46.85;95623.84;5006374;28;8856;-78
2022/12/31 03:15:32;;;;;;;;;78.25;65.25;;;;;21.37;46.81;95630.97;5003340;28;8986;-77
2022/12/31 03:18:03;;;;;;;;;69.50;59.25;;;;;21.35;46.92;95616.72;5005520;28;9859;-78
2022/12/31 03:23:30;;;;;;;;;69.50;59.00;;;;;21.34;46.91;95613.19;5001699;28;10277;-77
2022/12/31 03:25:58;;;;;;;;;78.25;66.00;;;;;21.34;46.73;95607.66;5002805;28;10775;-78
2022/12/31 03:28:29;;;;;;;;;68.25;58.00;;;;;21.35;46.87;95611.19;5008732;28;10725;-78
2022/12/31 03:31:00;;;;;;;;;70.00;59.25;;;;;21.36;46.61;95604.44;5009281;28;8835;-78
2022/12/31 03:33:39;;;;;;;;;68.50;58.75;;;;;21.34;46.63;95599.31;5009492;28;8820;-78
2022/12/31 03:36:12;;;;;;;;;74.00;62.00;;;;;21.36;46.60;95604.44;5005454;28;8856;-78
2022/12/31 03:38:42;;;;;;;;;71.33;60.33;;;;;21.34;46.64;95607.66;4989419;28;9471;-78
2022/12/31 03:41:12;;;;;;;;;65.75;56.00;;;;;21.33;46.54;95597.75;5007318;28;10241;-78
2022/12/31 03:43:38;;;;;;;;;71.00;59.75;;;;;21.34;46.34;95596.56;5007516;28;8849;-78
2022/12/31 03:46:07;;;;;;;;;80.25;67.25;;;;;21.34;46.46;95599.31;4990605;28;9163;-78
2022/12/31 03:48:34;;;;;;;;;79.50;66.00;;;;;21.33;46.55;95596.97;5008719;28;10422;-78
2022/12/31 03:51:03;;;;;;;;;80.25;66.25;;;;;21.32;46.50;95598.97;5006945;28;10047;-78
2022/12/31 03:53:30;;;;;;;;;67.75;57.25;;;;;21.34;46.19;95595.75;5009406;28;10506;-78
2022/12/31 03:55:57;;;;;;;;;67.25;56.00;;;;;21.32;46.26;95604.53;5007990;28;9086;-77
2022/12/31 03:58:24;;;;;;;;;71.75;60.75;;;;;21.34;46.13;95592.97;5008554;28;9317;-78
2022/12/31 04:00:51;;;;;;;;;69.25;58.50;;;;;21.34;46.08;95590.22;5010390;28;8828;-78
2022/12/31 04:03:18;;;;;;;;;68.00;58.00;;;;;21.33;46.11;95589.44;5006736;28;9349;-79
2022/12/31 04:05:52;;;;;;;;;69.25;60.00;;;;;21.34;46.05;95577.13;5007505;28;9439;-78
2022/12/31 04:08:18;;;;;;;;;70.00;59.25;;;;;21.33;46.05;95575.56;5007941;28;10604;-78
2022/12/31 04:10:45;;;;;;;;;78.50;65.50;;;;;21.33;46.13;95572.81;5007662;28;10675;-78
2022/12/31 04:13:12;;;;;;;;;78.25;66.00;;;;;21.33;46.01;95569.22;5007957;28;10030;-78
2022/12/31 04:15:39;;;;;;;;;70.25;59.25;;;;;21.31;46.07;95575.22;5009001;28;9940;-78
2022/12/31 04:18:06;;;;;;;;;69.00;59.25;;;;;21.31;46.08;95580.75;5007785;28;8863;-78
2022/12/31 04:20:33;;;;;;;;;77.00;64.25;;;;;21.34;46.07;95579.13;4988604;28;9012;-78
2022/12/31 04:22:59;;;;;;;;;77.00;64.00;;;;;21.30;45.90;95579.19;5007016;28;10108;-78
2022/12/31 04:25:26;;;;;;;;;77.25;65.25;;;;;21.32;45.97;95581.56;5006047;28;9898;-78
2022/12/31 04:27:53;;;;;;;;;74.25;62.25;;;;;21.31;45.83;95575.22;5004954;28;10131;-77
2022/12/31 04:30:20;;;;;;;;;74.25;62.25;;;;;21.32;45.83;95574.00;5005335;28;9415;-77
2022/12/31 04:32:47;;;;;;;;;71.00;59.25;;;;;21.32;45.83;95564.94;5007910;28;9539;-77
2022/12/31 04:35:13;;;;;;;;;70.25;59.50;;;;;21.31;45.76;95564.13;5008427;28;9238;-78
2022/12/31 04:37:40;;;;;;;;;78.00;64.00;;;;;21.30;45.76;95565.34;5006731;28;9200;-78
2022/12/31 04:40:08;;;;;;;;;80.25;67.25;;;;;21.31;45.83;95552.25;5005698;28;10785;-78
2022/12/31 04:42:35;;;;;;;;;78.25;66.00;;;;;21.29;45.97;95555.44;5007692;28;9999;-77
2022/12/31 04:45:03;;;;;;;;;79.50;66.75;;;;;21.30;45.87;95556.25;5007494;28;9966;-78
2022/12/31 04:47:30;;;;;;;;;69.00;59.25;;;;;21.31;45.84;95560.59;5007733;28;10274;-77
2022/12/31 04:49:57;;;;;;;;;78.25;65.75;;;;;21.30;45.63;95556.25;5006652;28;8847;-77
2022/12/31 04:52:24;;;;;;;;;67.50;57.50;;;;;21.30;45.88;95551.47;5006306;28;10370;-77
2022/12/31 04:54:51;;;;;;;;;76.25;62.50;;;;;21.31;45.89;95553.03;5007447;28;8882;-78
2022/12/31 04:57:18;;;;;;;;;75.00;63.00;;;;;21.30;45.68;95551.47;5005168;28;9859;-77
2022/12/31 04:59:44;;;;;;;;;69.25;60.00;;;;;21.29;45.67;95549.13;5007083;28;10414;-77
2022/12/31 05:02:11;;;;;;;;;65.00;55.00;;;;;21.30;45.48;95543.16;5007683;28;9051;-77
2022/12/31 05:04:38;;;;;;;;;69.25;60.00;;;;;21.30;45.68;95540.38;5006984;28;9109;-78
2022/12/31 05:07:05;;;;;;;;;71.00;60.00;;;;;21.30;45.49;95536.84;5008193;28;8882;-79
2022/12/31 05:09:32;;;;;;;;;69.75;59.25;;;;;21.28;45.48;95528.94;5007384;28;9332;-77
2022/12/31 05:11:59;;;;;;;;;70.25;59.25;;;;;21.28;45.42;95526.16;5005859;28;8894;-77
2022/12/31 05:14:26;;;;;;;;;79.00;66.50;;;;;21.30;45.36;95531.28;5006973;28;12474;-77
2022/12/31 05:16:53;;;;;;;;;80.00;67.25;;;;;21.29;45.48;95524.19;5006579;28;10074;-77
2022/12/31 05:19:20;;;;;;;;;67.75;58.00;;;;;21.30;45.21;95531.28;5005897;28;10849;-77
2022/12/31 05:22:27;;;;;;;;;73.33;61.33;;;;;21.29;45.33;95529.72;5006611;28;8843;-77
2022/12/31 05:24:34;;;;;;;;;69.00;59.00;;;;;21.29;45.22;95527.72;5007363;28;9226;-77
2022/12/31 05:27:02;;;;;;;;;78.50;66.25;;;;;21.29;45.17;95526.97;5004838;28;8868;-77
2022/12/31 05:29:34;;;;;;;;;75.75;62.25;;;;;21.29;45.16;95529.72;5006871;28;10464;-77
2022/12/31 05:32:01;;;;;;;;;75.25;63.00;;;;;21.28;45.06;95520.63;5006129;28;9550;-77
2022/12/31 05:34:27;;;;;;;;;68.25;58.25;;;;;21.29;45.15;95508.31;5006538;28;9642;-78
2022/12/31 05:36:56;;;;;;;;;78.25;64.25;;;;;21.29;45.28;95502.00;5006143;28;8864;-77
2022/12/31 05:39:22;;;;;;;;;80.00;66.25;;;;;21.28;44.93;95505.97;5006985;28;10034;-78
2022/12/31 05:41:50;;;;;;;;;68.25;58.00;;;;;21.28;45.11;95522.63;5006867;28;10590;-77
2022/12/31 05:44:17;;;;;;;;;80.75;67.25;;;;;21.26;45.13;95520.28;5004725;28;10524;-78
2022/12/31 05:46:43;;;;;;;;;79.00;66.75;;;;;21.28;44.81;95509.53;4987707;28;10052;-77
2022/12/31 05:49:10;;;;;;;;;68.00;58.00;;;;;21.27;44.97;95519.06;5006809;28;9878;-77
2022/12/31 05:51:37;;;;;;;;;75.75;62.25;;;;;21.28;44.94;95511.53;5005451;28;8863;-77
2022/12/31 05:54:04;;;;;;;;;69.25;59.25;;;;;21.26;44.95;95508.41;5005532;28;9729;-77
2022/12/31 05:56:31;;;;;;;;;70.25;59.50;;;;;21.29;44.94;95521.41;5006679;28;9089;-77
2022/12/31 05:58:59;;;;;;;;;80.25;67.25;;;;;21.30;44.80;95522.97;5005168;28;8840;-77
2022/12/31 06:01:26;;;;;;;;;67.50;58.50;;;;;21.29;44.67;95518.63;5005574;28;10679;-77
2022/12/31 06:03:53;;;;;;;;;68.00;58.00;;;;;21.26;44.84;95513.94;5007835;28;8883;-77
2022/12/31 06:06:20;;;;;;;;;78.75;66.00;;;;;21.26;44.89;95519.50;5004669;28;9244;-77
2022/12/31 06:08:50;;;;;;;;;69.25;58.50;;;;;21.25;44.78;95524.28;5006529;28;10193;-77
2022/12/31 06:11:17;;;;;;;;;70.50;60.00;;;;;21.27;44.63;95529.38;5006178;28;8864;-78
2022/12/31 06:13:44;;;;;;;;;78.50;66.00;;;;;21.25;44.62;95538.13;5005127;28;8836;-77
2022/12/31 06:16:11;;;;;;;;;79.50;67.00;;;;;21.25;44.68;95538.13;5004549;28;9898;-77
2022/12/31 06:18:38;;;;;;;;;70.75;60.50;;;;;21.29;44.56;95546.38;5006478;28;10159;-77
2022/12/31 06:21:05;;;;;;;;;68.75;58.75;;;;;21.26;44.61;95545.25;5003891;28;9619;-77
2022/12/31 06:23:32;;;;;;;;;77.00;63.25;;;;;21.27;44.41;95548.78;5002990;28;9654;-77
2022/12/31 06:26:03;;;;;;;;;79.00;66.00;;;;;21.25;44.62;95546.44;5006123;28;10030;-77
2022/12/31 06:28:30;;;;;;;;;66.00;55.00;;;;;21.24;44.41;95550.44;5005715;28;10045;-77
2022/12/31 06:31:05;;;;;;;;;78.50;65.50;;;;;21.27;44.27;95551.56;5007445;28;8860;-76
2022/12/31 06:33:33;;;;;;;;;80.50;66.00;;;;;21.26;44.15;95547.22;4984314;28;10180;-77
2022/12/31 06:36:03;;;;;;;;;80.00;67.00;;;;;21.25;44.28;95548.44;5004676;28;10265;-77
2022/12/31 06:38:32;;;;;;;;;81.00;67.00;;;;;21.24;44.16;95555.97;5006425;28;10396;-77
2022/12/31 06:41:07;;;;;;;;;70.00;60.50;;;;;21.26;43.88;95559.09;4987936;28;11166;-75
2022/12/31 06:43:35;;;;;;;;;82.00;68.00;;;;;21.28;44.07;95553.13;5004781;28;8915;-77
2022/12/31 06:46:04;;;;;;;;;73.00;61.75;;;;;21.25;43.89;95560.31;5006614;28;10693;-78
2022/12/31 06:48:31;;;;;;;;;72.00;60.25;;;;;21.23;43.82;95559.19;4988112;28;9320;-78
2022/12/31 06:51:18;;;;;;;;;69.25;58.00;;;;;21.23;43.75;95553.66;5003349;28;9187;-78
2022/12/31 06:53:47;;;;;;;;;73.25;61.25;;;;;21.19;43.72;95553.72;5001058;28;8966;-78
2022/12/31 06:56:27;;;;;;;;;79.00;65.25;;;;;21.16;43.87;95562.91;5003923;28;10393;-77
2022/12/31 06:59:01;;;;;;;;;76.00;64.00;;;;;21.20;43.67;95562.81;5004916;28;10026;-78
2022/12/31 07:02:04;;;;;;;;;82.25;68.00;;;;;21.22;43.38;95566.72;5006580;28;9847;-77
2022/12/31 07:04:50;;;;;;;;;68.00;56.25;;;;;21.19;43.61;95567.59;5007832;28;11269;-77
2022/12/31 07:07:22;;;;;;;;;79.75;66.75;;;;;21.20;43.48;95566.38;5010041;28;8859;-77
2022/12/31 07:10:16;;;;;;;;;81.00;66.50;;;;;21.18;43.72;95555.72;5009241;28;11034;-78
2022/12/31 07:12:49;;;;;;;;;67.50;57.75;;;;;21.18;43.58;95558.47;5003252;28;10298;-77
2022/12/31 07:15:41;;;;;;;;;80.00;67.00;;;;;21.18;43.51;95566.81;5005132;28;10717;-78
2022/12/31 07:18:25;;;;;;;;;71.75;61.75;;;;;21.20;43.42;95571.91;4989556;28;10480;-78
2022/12/31 07:20:53;;;;;;;;;71.75;61.75;;;;;21.17;43.34;95570.78;5007020;28;8875;-79
2022/12/31 07:23:20;;;;;;;;;74.33;62.00;;;;;21.18;43.38;95569.56;5009639;28;8869;-79
2022/12/31 07:25:59;;;;;;;;;80.00;67.00;;;;;21.18;43.10;95577.91;5007021;28;9689;-78
2022/12/31 07:29:04;;;;;;;;;69.00;59.00;;;;;21.21;43.44;95583.78;5008813;28;10297;-79
2022/12/31 07:32:04;;;;;;;;;80.00;67.50;;;;;21.21;43.24;95578.25;5007888;28;8896;-78
2022/12/31 07:34:53;;;;;;;;;68.75;58.75;;;;;21.20;43.24;95585.00;5006089;28;10510;-78
2022/12/31 07:37:38;;;;;;;;;77.25;64.25;;;;;21.11;43.42;95589.16;5009264;28;9677;-69
2022/12/31 07:40:13;;;;;;;;;70.25;60.25;;;;;21.16;43.21;95587.84;5009194;28;10696;-69
2022/12/31 07:43:22;;;;;;;;;70.00;60.00;;;;;21.25;43.07;95588.03;5009286;28;8849;-69
2022/12/31 07:46:15;;;;;;;;;70.75;59.50;;;;;21.33;42.67;95602.50;5009267;28;8856;-68
2022/12/31 07:48:43;;;;;;;;;75.25;63.25;;;;;21.32;42.28;95601.75;4996864;28;8953;-68
2022/12/31 07:51:10;;;;;;;;;66.50;56.25;;;;;21.32;41.99;95606.53;5003397;28;9951;-68
2022/12/31 07:53:38;;;;;;;;;76.00;63.25;;;;;21.30;41.70;95606.94;5006987;28;9551;-69
2022/12/31 07:56:07;;;;;;;;;69.00;59.00;;;;;21.31;41.57;95618.81;5007667;28;9952;-68
2022/12/31 07:58:56;;;;;;;;;69.00;59.00;;;;;21.30;41.24;95615.25;5003909;28;10274;-68
2022/12/31 08:01:40;;;;;;;;;73.00;61.00;;;;;21.28;40.71;95608.59;5008452;28;10479;-68
2022/12/31 08:04:26;;;;;;;;;78.25;66.00;;;;;21.25;40.80;95609.44;4992804;28;8829;-68
2022/12/31 08:07:24;;;;;;;;;82.50;67.25;;;;;21.10;41.70;95622.84;5008671;28;10407;-66
2022/12/31 08:10:09;;;;;;;;;80.25;66.50;;;;;20.94;43.39;95626.34;5008711;28;10591;-72
2022/12/31 08:12:45;;;;;;;;;73.25;61.25;;;;;21.03;43.75;95626.56;5005578;28;10442;-73
2022/12/31 08:15:14;;;;;;;;;75.25;62.50;;;;;21.05;44.45;95626.13;5007602;28;10597;-74
2022/12/31 08:17:42;;;;;;;;;67.25;57.00;;;;;21.03;45.65;95632.09;5007029;28;9761;-72
2022/12/31 08:20:14;;;;;;;;;78.25;66.00;;;;;20.95;47.26;95633.47;5004702;28;9591;-69
2022/12/31 08:22:44;;;;;;;;;81.00;67.25;;;;;21.11;42.41;95639.06;5005746;28;11075;-71
2022/12/31 08:25:52;;;;;;;;;75.25;63.00;;;;;21.24;41.33;95638.41;5009052;28;10369;-71
2022/12/31 08:28:41;;;;;;;;;79.75;67.00;;;;;21.24;42.79;95632.84;4945845;28;9940;-71
2022/12/31 08:31:23;;;;;;;;;74.00;61.25;;;;;21.21;42.77;95639.25;4945512;28;10659;-71
2022/12/31 08:34:10;;;;;;;;;74.00;62.25;;;;;21.20;43.19;95646.78;4947080;28;9563;-72
2022/12/31 08:37:05;;;;;;;;;68.75;58.25;;;;;21.16;43.63;95655.16;4946450;28;10134;-72
2022/12/31 08:40:15;;;;;;;;;79.75;67.00;;;;;21.14;44.13;95663.16;4938526;28;10663;-72
2022/12/31 08:43:08;;;;;;;;;70.00;60.00;;;;;21.13;44.44;95664.34;4866228;29;10530;-73
2022/12/31 08:45:40;;;;;;;;;70.25;59.50;;;;;21.05;45.01;95665.72;4864490;29;8891;-70
2022/12/31 08:48:25;;;;;;;;;72.25;60.00;;;;;21.02;46.42;95675.69;4871889;29;8870;-69
2022/12/31 08:50:53;;;;;;;;;82.75;67.50;;;;;21.03;45.93;95668.13;4869968;29;8851;-67
2022/12/31 08:53:20;;;;;;;;;82.25;69.25;;;;;21.05;47.73;95664.94;4866170;29;11157;-69
2022/12/31 08:55:51;;;;;;;;;80.50;68.00;;;;;21.13;46.31;95661.59;4864462;29;10780;-71
2022/12/31 08:58:31;;;;;;;;;82.00;67.25;;;;;21.21;45.50;95661.44;4870193;29;10435;-70
2022/12/31 09:00:58;;;;;;;;;78.75;65.00;;;;;21.15;44.92;95659.19;4866456;29;11662;-68
2022/12/31 09:03:43;;;;;;;;;82.00;68.00;;;;;21.12;45.39;95660.03;4877133;29;10248;-67
2022/12/31 09:06:28;;;;;;;;;79.50;66.50;;;;;21.03;46.02;95652.28;4898252;29;10946;-66
2022/12/31 09:09:12;;;;;;;;;80.00;67.00;;;;;21.06;46.92;95664.50;4898586;29;10734;-70
2022/12/31 09:12:17;;;;;;;;;72.75;61.50;;;;;21.08;46.70;95670.38;4900043;29;10539;-69
2022/12/31 09:15:13;;;;;;;;;82.75;69.25;;;;;21.08;47.02;95672.41;4903699;29;8870;-68
2022/12/31 09:17:49;;;;;;;;;71.50;61.00;;;;;21.07;47.00;95679.91;4928766;28;10760;-68
2022/12/31 09:20:35;;;;;;;;;76.00;63.50;;;;;21.01;48.04;95673.31;5001112;28;8860;-68
2022/12/31 09:23:12;;;;;;;;;70.00;60.00;;;;;20.99;49.53;95665.44;5001181;28;10034;-70
2022/12/31 09:26:13;;;;;;;;;68.00;58.00;;;;;21.00;49.88;95671.75;5002533;28;8897;-69
2022/12/31 09:29:17;;;;;;;;;79.25;66.50;;;;;21.05;49.18;95682.34;5003069;28;8888;-70
2022/12/31 09:31:58;;;;;;;;;77.50;64.50;;;;;20.91;50.30;95686.19;5002881;28;10260;-68
2022/12/31 09:34:44;;;;;;;;;68.50;58.25;;;;;20.96;49.65;95690.47;5004595;28;10455;-69
2022/12/31 09:37:36;;;;;;;;;67.50;58.50;;;;;21.01;48.88;95693.53;5003297;28;8988;-67
2022/12/31 09:40:27;;;;;;;;;68.75;58.75;;;;;21.03;48.78;95695.84;4996214;28;8840;-66
2022/12/31 09:43:32;;;;;;;;;71.50;60.00;;;;;20.92;43.05;95685.00;5006123;28;8872;-68
2022/12/31 09:46:41;;;;;;;;;75.75;62.50;;;;;20.84;41.53;95694.66;4985559;28;8956;-69
2022/12/31 09:49:23;;;;;;;;;80.50;68.00;;;;;20.84;44.28;95692.66;5005567;28;8979;-70
2022/12/31 09:52:11;;;;;;;;;72.25;61.75;;;;;20.88;44.90;95689.03;5006768;28;10283;-68
2022/12/31 09:55:06;;;;;;;;;70.25;60.25;;;;;20.92;45.83;95695.28;5005757;28;9336;-69
2022/12/31 09:57:58;;;;;;;;;80.00;66.25;;;;;20.93;46.31;95694.06;5005511;28;11010;-69
2022/12/31 10:01:02;;;;;;;;;81.75;67.50;;;;;20.94;47.00;95692.88;4926290;28;11038;-69
2022/12/31 10:04:06;;;;;;;;;73.75;60.25;;;;;20.96;47.23;95693.22;4925407;29;11182;-69
2022/12/31 10:06:59;;;;;;;;;79.50;67.00;;;;;20.95;47.86;95686.88;4925944;29;11077;-69
2022/12/31 10:09:26;;;;;;;;;76.00;64.00;;;;;20.97;48.16;95686.47;4926173;29;11227;-69
2022/12/31 10:11:55;;;;;;;;;66.25;57.25;;;;;20.95;48.31;95683.34;4926587;29;10193;-69
2022/12/31 10:14:25;;;;;;;;;72.75;62.00;;;;;20.96;48.47;95676.59;4928885;29;9298;-70
2022/12/31 10:17:12;;;;;;;;;73.00;61.25;;;;;20.96;48.91;95687.69;4925865;29;9385;-68
2022/12/31 10:19:54;;;;;;;;;80.00;67.00;;;;;20.94;49.06;95679.00;4925251;29;9807;-69
2022/12/31 10:22:35;;;;;;;;;79.75;66.75;;;;;20.96;49.11;95690.47;4926813;28;10578;-69
2022/12/31 10:25:40;;;;;;;;;76.25;63.75;;;;;20.94;49.63;95679.78;4926372;29;10137;-69
2022/12/31 10:28:21;;;;;;;;;83.00;70.00;;;;;20.94;49.54;95673.47;4928327;29;10071;-69
2022/12/31 10:31:19;;;;;;;;;73.75;62.25;;;;;20.92;49.89;95679.44;4926946;29;10757;-68
2022/12/31 10:34:16;;;;;;;;;77.25;64.25;;;;;20.94;49.96;95674.22;4924158;29;8870;-69
2022/12/31 10:37:16;;;;;;;;;73.00;61.50;;;;;20.93;49.92;95669.13;4922769;28;9939;-69
2022/12/31 10:40:02;;;;;;;;;75.00;62.00;;;;;20.91;50.28;95666.00;4986256;28;9789;-68
2022/12/31 10:42:47;;;;;;;;;79.00;66.00;;;;;20.92;50.18;95671.13;4986858;28;10613;-69
2022/12/31 10:45:19;;;;;;;;;82.50;68.00;;;;;20.91;50.15;95660.44;4986621;28;10917;-69
2022/12/31 10:47:49;;;;;;;;;80.75;67.75;;;;;20.92;50.27;95660.03;4967885;28;10514;-69
2022/12/31 10:50:38;;;;;;;;;71.25;60.25;;;;;20.92;50.35;95659.25;4986929;28;10300;-69
2022/12/31 10:53:28;;;;;;;;;79.50;65.50;;;;;20.92;50.32;95659.25;4987432;28;9432;-69
2022/12/31 10:56:13;;;;;;;;;71.25;60.25;;;;;20.86;50.40;95651.44;4984954;28;10226;-69
2022/12/31 10:58:51;;;;;;;;;81.00;67.25;;;;;20.89;50.47;95658.13;4984313;28;8860;-69
2022/12/31 11:01:33;;;;;;;;;74.25;61.25;;;;;20.89;50.60;95654.56;4987861;28;10352;-69
2022/12/31 11:04:21;;;;;;;;;75.25;63.00;;;;;20.89;50.53;95654.56;4987787;28;9715;-69
2022/12/31 11:07:15;;;;;;;;;71.75;59.50;;;;;20.86;50.79;95647.88;4987590;28;9662;-69
2022/12/31 11:09:54;;;;;;;;;67.50;57.50;;;;;20.79;50.88;95657.13;4986507;28;8974;-69
2022/12/31 11:12:39;;;;;;;;;80.00;66.50;;;;;20.69;51.27;95658.88;4983366;28;8952;-69
2022/12/31 11:15:38;;;;;;;;;67.50;58.00;;;;;20.56;51.51;95658.72;4987209;28;10480;-69
2022/12/31 11:18:26;;;;;;;;;66.50;57.00;;;;;20.53;51.72;95651.28;4986520;28;8844;-68
2022/12/31 11:21:07;;;;;;;;;69.00;58.50;;;;;20.61;51.61;95634.50;4984167;28;10813;-68
2022/12/31 11:23:43;;;;;;;;;73.75;62.00;;;;;20.65;51.33;95638.78;4987939;28;8877;-69
2022/12/31 11:26:16;;;;;;;;;78.00;65.25;;;;;20.66;51.59;95634.78;4985150;28;11031;-69
2022/12/31 11:28:43;;;;;;;;;77.00;64.25;;;;;20.65;51.67;95627.69;4984929;28;10253;-68
2022/12/31 11:31:49;;;;;;;;;79.00;66.00;;;;;20.51;51.72;95620.44;4988152;28;9845;-69
2022/12/31 11:34:23;;;;;;;;;81.25;68.25;;;;;20.60;51.73;95611.56;4938415;28;10196;-68
2022/12/31 11:37:27;;;;;;;;;74.25;62.25;;;;;20.62;51.60;95608.38;5004358;28;11690;-69
2022/12/31 11:39:57;;;;;;;;;70.00;60.00;;;;;20.71;51.48;95609.34;5006065;28;9527;-69
2022/12/31 11:42:54;;;;;;;;;71.75;61.00;;;;;20.55;51.82;95604.53;5005792;28;8890;-68
2022/12/31 11:45:42;;;;;;;;;68.25;58.25;;;;;20.54;51.99;95604.94;5004013;28;9489;-69
2022/12/31 11:48:19;;;;;;;;;73.25;61.25;;;;;20.46;52.06;95598.78;5007777;28;9612;-68
2022/12/31 11:51:00;;;;;;;;;78.00;65.00;;;;;20.45;52.08;95600.00;5007234;28;9338;-70
2022/12/31 11:53:46;;;;;;;;;77.25;64.25;;;;;20.39;52.11;95588.63;5010375;28;10555;-69
2022/12/31 11:56:20;;;;;;;;;69.00;59.00;;;;;20.36;52.48;95588.69;5008627;28;10576;-69
2022/12/31 11:58:56;;;;;;;;;68.00;58.00;;;;;20.34;52.27;95580.81;5006915;28;9564;-69
2022/12/31 12:01:30;;;;;;;;;70.00;59.00;;;;;20.32;52.55;95576.91;5008498;28;8832;-67
2022/12/31 12:03:58;;;;;;;;;69.25;58.75;;;;;20.31;52.63;95575.31;5008992;28;8848;-69
2022/12/31 12:06:31;;;;;;;;;66.25;57.25;;;;;20.28;52.65;95581.72;5008747;28;10365;-69
2022/12/31 12:09:09;;;;;;;;;65.00;55.25;;;;;20.35;52.56;95576.06;4991558;28;9209;-69